createdAt,value
2022-10-28T00:00:13.998Z,8.00
2022-10-28T00:03:18.870Z,7.70
2022-10-28T00:06:24.508Z,8.17
2022-10-28T00:09:42.902Z,8.67
2022-10-28T00:12:45.696Z,10.13
2022-10-28T00:15:49.121Z,9.33
2022-10-28T00:18:54.731Z,8.77
2022-10-28T00:21:57.631Z,8.27
2022-10-28T00:25:00.455Z,8.63
2022-10-28T00:28:03.320Z,8.80
2022-10-28T00:31:08.156Z,7.83
2022-10-28T00:34:15.159Z,7.53
2022-10-28T00:37:18.031Z,7.67
2022-10-28T00:40:20.881Z,7.97
2022-10-28T00:43:35.460Z,7.17
2022-10-28T00:46:43.603Z,7.07
2022-10-28T00:49:50.015Z,8.03
2022-10-28T00:52:56.661Z,7.27
2022-10-28T00:56:01.397Z,7.60
2022-10-28T00:59:07.873Z,6.93
2022-10-28T01:02:11.007Z,8.40
2022-10-28T01:05:20.090Z,8.57
2022-10-28T01:08:23.059Z,9.47
2022-10-28T01:11:52.572Z,8.30
2022-10-28T01:15:06.330Z,8.00
2022-10-28T01:18:23.659Z,8.87
2022-10-28T01:21:44.837Z,7.77
2022-10-28T01:25:23.410Z,7.90
2022-10-28T01:29:14.996Z,8.93
2022-10-28T01:32:28.863Z,8.40
2022-10-28T01:35:39.582Z,8.07
2022-10-28T01:38:51.589Z,8.40
2022-10-28T01:42:16.637Z,8.10
2022-10-28T01:45:23.833Z,6.83
2022-10-28T01:48:44.696Z,7.50
2022-10-28T01:51:50.172Z,7.33
2022-10-28T01:54:59.126Z,7.00
2022-10-28T01:58:04.323Z,7.73
2022-10-28T02:01:10.234Z,7.17
2022-10-28T02:04:14.498Z,6.70
2022-10-28T02:07:18.069Z,7.37
2022-10-28T02:10:27.672Z,7.30
2022-10-28T02:13:45.819Z,7.50
2022-10-28T02:16:55.310Z,7.50
2022-10-28T02:20:08.489Z,7.20
2022-10-28T02:23:18.683Z,7.37
2022-10-28T02:26:27.589Z,7.07
2022-10-28T02:29:35.363Z,7.30
2022-10-28T02:32:43.204Z,7.53
2022-10-28T02:35:51.055Z,7.83
2022-10-28T02:38:58.019Z,7.13
2022-10-28T02:42:05.061Z,6.93
2022-10-28T02:45:13.361Z,6.87
2022-10-28T02:48:23.074Z,7.30
2022-10-28T02:51:34.470Z,7.63
2022-10-28T02:54:41.198Z,8.00
2022-10-28T02:57:48.475Z,7.83
2022-10-28T03:00:52.244Z,7.53
2022-10-28T03:03:55.171Z,7.90
2022-10-28T03:06:59.400Z,7.60
2022-10-28T03:10:02.219Z,7.60
2022-10-28T03:13:05.059Z,7.67
2022-10-28T03:16:07.951Z,7.53
2022-10-28T03:19:10.770Z,7.30
2022-10-28T03:22:15.096Z,6.73
2022-10-28T03:25:18.484Z,7.80
2022-10-28T03:28:21.414Z,7.77
2022-10-28T03:31:24.296Z,8.60
2022-10-28T03:34:27.355Z,7.40
2022-10-28T03:37:31.594Z,7.80
2022-10-28T03:40:34.815Z,9.03
2022-10-28T03:43:38.076Z,8.03
2022-10-28T03:46:40.944Z,8.03
2022-10-28T03:49:43.813Z,7.63
2022-10-28T03:52:48.116Z,8.47
2022-10-28T03:55:54.437Z,8.10
2022-10-28T03:58:57.333Z,7.33
2022-10-28T04:02:09.408Z,7.70
2022-10-28T04:05:12.366Z,7.90
2022-10-28T04:08:17.107Z,8.20
2022-10-28T04:11:20.033Z,7.27
2022-10-28T04:14:22.999Z,7.37
2022-10-28T04:17:26.028Z,7.80
2022-10-28T04:20:29.608Z,7.53
2022-10-28T04:23:33.854Z,8.40
2022-10-28T04:26:36.701Z,8.30
2022-10-28T04:29:39.579Z,8.33
2022-10-28T04:32:43.088Z,9.20
2022-10-28T04:35:46.414Z,8.73
2022-10-28T04:38:51.938Z,7.63
2022-10-28T04:41:54.856Z,7.67
2022-10-28T04:44:57.679Z,7.50
2022-10-28T04:48:01.626Z,8.43
2022-10-28T04:51:09.341Z,7.90
2022-10-28T04:54:13.537Z,8.23
2022-10-28T04:57:16.332Z,7.63
2022-10-28T05:00:20.326Z,7.23
2022-10-28T05:03:23.173Z,7.33
2022-10-28T05:06:26.077Z,7.80
2022-10-28T05:09:30.243Z,9.43
2022-10-28T05:12:33.101Z,7.87
2022-10-28T05:15:36.068Z,7.83
2022-10-28T05:18:39.274Z,7.53
2022-10-28T05:21:42.073Z,8.50
2022-10-28T05:24:46.272Z,8.03
2022-10-28T05:27:49.264Z,8.03
2022-10-28T05:30:52.152Z,10.10
2022-10-28T05:33:55.032Z,9.27
2022-10-28T05:36:57.842Z,9.13
2022-10-28T05:40:02.110Z,8.77
2022-10-28T05:43:05.493Z,9.63
2022-10-28T05:46:08.366Z,9.70
2022-10-28T05:49:11.178Z,11.07
2022-10-28T05:52:14.042Z,10.83
2022-10-28T05:55:19.528Z,10.37
2022-10-28T05:58:22.393Z,9.77
2022-10-28T06:01:25.272Z,10.67
2022-10-28T06:04:28.208Z,11.30
2022-10-28T06:07:41.759Z,10.40
2022-10-28T06:10:53.817Z,9.90
2022-10-28T06:13:56.640Z,10.20
2022-10-28T06:16:59.529Z,11.30
2022-10-28T06:20:04.884Z,9.60
2022-10-28T06:23:07.714Z,9.13
2022-10-28T06:26:11.897Z,8.63
2022-10-28T06:29:14.754Z,11.23
2022-10-28T06:32:17.583Z,11.13
2022-10-28T06:35:20.432Z,10.13
2022-10-28T06:38:23.464Z,9.27
2022-10-28T06:41:27.668Z,11.10
2022-10-28T06:44:30.769Z,11.00
2022-10-28T06:47:39.077Z,10.20
2022-10-28T06:50:44.635Z,9.50
2022-10-28T06:53:56.708Z,9.67
2022-10-28T06:57:00.957Z,8.93
2022-10-28T07:00:04.115Z,9.50
2022-10-28T07:03:07.042Z,9.67
2022-10-28T07:06:10.077Z,9.10
2022-10-28T07:09:15.439Z,9.03
2022-10-28T07:12:19.736Z,9.13
2022-10-28T07:15:22.629Z,8.40
2022-10-28T07:18:27.652Z,9.03
2022-10-28T07:21:30.483Z,9.23
2022-10-28T07:24:33.424Z,9.23
2022-10-28T07:27:37.880Z,9.00
2022-10-28T07:30:40.675Z,9.13
2022-10-28T07:33:43.746Z,8.40
2022-10-28T07:36:46.724Z,8.60
2022-10-28T07:39:49.634Z,7.70
2022-10-28T07:42:54.023Z,8.57
2022-10-28T07:45:57.599Z,7.80
2022-10-28T07:49:00.779Z,8.60
2022-10-28T07:52:10.625Z,7.60
2022-10-28T07:55:13.745Z,7.70
2022-10-28T07:58:18.776Z,7.93
2022-10-28T08:01:22.685Z,8.10
2022-10-28T08:04:25.712Z,8.77
2022-10-28T08:07:42.355Z,8.13
2022-10-28T08:10:46.599Z,7.53
2022-10-28T08:13:52.999Z,7.20
2022-10-28T08:16:55.877Z,7.27
2022-10-28T08:19:58.824Z,7.30
2022-10-28T08:23:04.039Z,7.63
2022-10-28T08:26:09.743Z,7.17
2022-10-28T08:29:14.033Z,6.13
2022-10-28T08:32:16.973Z,6.87
2022-10-28T08:35:19.869Z,7.03
2022-10-28T08:38:23.839Z,6.63
2022-10-28T08:41:36.083Z,8.27
2022-10-28T08:45:15.754Z,6.40
2022-10-28T08:48:29.773Z,6.17
2022-10-28T08:51:46.642Z,6.60
2022-10-28T08:54:53.596Z,6.27
2022-10-28T08:58:00.401Z,6.17
2022-10-28T09:01:10.198Z,5.77
2022-10-28T09:04:22.435Z,5.83
2022-10-28T09:07:26.019Z,5.53
2022-10-28T09:10:45.975Z,6.33
2022-10-28T09:14:12.205Z,5.90
2022-10-28T09:17:20.160Z,5.83
2022-10-28T09:20:32.887Z,6.00
2022-10-28T09:23:40.802Z,5.90
2022-10-28T09:26:52.598Z,6.30
2022-10-28T09:30:01.519Z,5.33
2022-10-28T09:33:17.564Z,5.80
2022-10-28T09:36:25.620Z,5.70
2022-10-28T09:39:32.419Z,5.43
2022-10-28T09:42:43.765Z,5.37
2022-10-28T09:45:51.091Z,5.13
2022-10-28T09:49:00.135Z,5.17
2022-10-28T09:52:15.309Z,5.33
2022-10-28T09:55:22.681Z,5.03
2022-10-28T09:58:25.670Z,5.73
2022-10-28T10:01:33.299Z,6.20
2022-10-28T10:04:38.825Z,5.40
2022-10-28T10:07:45.604Z,5.57
2022-10-28T10:10:51.031Z,5.00
2022-10-28T10:13:55.381Z,5.27
2022-10-28T10:17:03.706Z,5.37
2022-10-28T10:20:11.106Z,5.30
2022-10-28T10:23:24.472Z,4.70
2022-10-28T10:26:33.799Z,4.97
2022-10-28T10:29:38.162Z,4.80
2022-10-28T10:32:41.220Z,4.97
2022-10-28T10:35:45.502Z,4.50
2022-10-28T10:38:50.197Z,5.00
2022-10-28T10:41:55.295Z,4.90
2022-10-28T10:45:04.267Z,4.70
2022-10-28T10:48:16.000Z,5.00
2022-10-28T10:51:26.060Z,4.33
2022-10-28T10:54:31.627Z,4.47
2022-10-28T10:57:36.392Z,4.80
2022-10-28T11:00:45.671Z,4.57
2022-10-28T11:04:00.234Z,5.03
2022-10-28T11:07:17.091Z,5.23
2022-10-28T11:10:37.606Z,4.80
2022-10-28T11:13:45.183Z,4.70
2022-10-28T11:16:52.335Z,4.33
2022-10-28T11:19:57.621Z,4.83
2022-10-28T11:23:13.064Z,4.90
2022-10-28T11:26:18.117Z,5.87
2022-10-28T11:29:22.921Z,5.30
2022-10-28T11:32:43.985Z,5.07
2022-10-28T11:36:04.808Z,4.60
2022-10-28T11:39:26.973Z,4.20
2022-10-28T11:42:40.778Z,5.10
2022-10-28T11:45:51.607Z,4.63
2022-10-28T11:49:29.675Z,5.30
2022-10-28T11:52:49.830Z,5.23
2022-10-28T11:56:00.533Z,4.90
2022-10-28T11:59:48.849Z,4.60
2022-10-28T12:03:14.748Z,4.63
2022-10-28T12:06:25.179Z,4.80
2022-10-28T12:09:37.297Z,5.30
2022-10-28T12:12:48.768Z,4.50
2022-10-28T12:15:59.764Z,4.57
2022-10-28T12:19:09.983Z,5.33
2022-10-28T12:22:17.961Z,5.63
2022-10-28T12:25:24.354Z,4.80
2022-10-28T12:28:33.728Z,5.30
2022-10-28T12:31:46.768Z,5.43
2022-10-28T12:34:54.900Z,4.60
2022-10-28T12:38:03.781Z,4.67
2022-10-28T12:41:13.905Z,4.60
2022-10-28T12:44:21.792Z,5.37
2022-10-28T12:47:29.843Z,5.27
2022-10-28T12:50:38.729Z,4.90
2022-10-28T12:53:47.841Z,5.13
2022-10-28T12:56:53.595Z,5.33
2022-10-28T13:00:06.665Z,4.83
2022-10-28T13:03:13.556Z,5.17
2022-10-28T13:06:32.432Z,4.73
2022-10-28T13:09:56.853Z,4.80
2022-10-28T13:13:35.314Z,5.73
2022-10-28T13:16:53.501Z,5.77
2022-10-28T13:20:18.482Z,6.13
2022-10-28T13:23:30.144Z,4.97
2022-10-28T13:26:36.595Z,4.87
2022-10-28T13:29:41.952Z,4.53
2022-10-28T13:32:46.699Z,4.63
2022-10-28T13:35:50.926Z,4.80
2022-10-28T13:38:58.429Z,5.70
2022-10-28T13:42:47.780Z,5.43
2022-10-28T13:45:53.163Z,5.37
2022-10-28T13:49:26.440Z,5.63
2022-10-28T13:52:29.304Z,5.27
2022-10-28T13:55:45.911Z,5.67
2022-10-28T13:58:54.340Z,5.27
2022-10-28T14:02:28.467Z,5.00
2022-10-28T14:05:27.955Z,4.90
2022-10-28T14:08:39.320Z,4.70
2022-10-28T14:11:42.260Z,5.43
2022-10-28T14:15:01.657Z,4.23
2022-10-28T14:18:22.436Z,4.43
2022-10-28T14:21:56.508Z,4.50
2022-10-28T14:25:04.665Z,5.17
2022-10-28T14:28:52.065Z,5.50
2022-10-28T14:31:55.099Z,5.50
2022-10-28T14:34:59.943Z,5.43
2022-10-28T14:38:39.344Z,5.33
2022-10-28T14:42:05.790Z,5.03
2022-10-28T14:45:32.005Z,5.37
2022-10-28T14:48:52.667Z,5.40
2022-10-28T14:51:56.520Z,5.30
2022-10-28T14:55:01.896Z,4.97
2022-10-28T14:58:22.390Z,5.20
2022-10-28T15:01:35.002Z,5.03
2022-10-28T15:04:39.376Z,5.47
2022-10-28T15:07:43.110Z,5.20
2022-10-28T15:10:50.243Z,5.10
2022-10-28T15:13:54.870Z,4.73
2022-10-28T15:17:00.037Z,5.13
2022-10-28T15:20:20.722Z,5.57
2022-10-28T15:23:24.837Z,7.27
2022-10-28T15:26:27.923Z,6.20
2022-10-28T15:29:32.925Z,6.23
2022-10-28T15:32:36.414Z,6.00
2022-10-28T15:35:40.367Z,5.53
2022-10-28T15:38:43.921Z,6.33
2022-10-28T15:41:49.631Z,6.27
2022-10-28T15:44:56.955Z,5.60
2022-10-28T15:48:01.339Z,5.17
2022-10-28T15:51:13.019Z,6.00
2022-10-28T15:54:20.744Z,6.23
2022-10-28T15:57:24.820Z,6.43
2022-10-28T16:00:31.182Z,6.50
2022-10-28T16:03:43.748Z,6.80
2022-10-28T16:06:47.325Z,6.03
2022-10-28T16:09:51.934Z,6.10
2022-10-28T16:12:54.969Z,5.93
2022-10-28T16:16:05.239Z,6.47
2022-10-28T16:19:09.608Z,6.50
2022-10-28T16:22:14.096Z,6.90
2022-10-28T16:25:20.133Z,7.30
2022-10-28T16:28:26.604Z,7.93
2022-10-28T16:31:31.947Z,8.50
2022-10-28T16:34:34.840Z,9.87
2022-10-28T16:37:44.202Z,9.73
2022-10-28T16:40:51.771Z,9.37
2022-10-28T16:43:56.321Z,8.47
2022-10-28T16:47:00.580Z,8.63
2022-10-28T16:50:03.485Z,7.93
2022-10-28T16:53:06.297Z,7.00
2022-10-28T16:56:13.738Z,6.70
2022-10-28T16:59:19.316Z,7.27
2022-10-28T17:02:27.703Z,7.53
2022-10-28T17:05:30.892Z,7.70
2022-10-28T17:09:01.097Z,6.60
2022-10-28T17:11:56.600Z,6.53
2022-10-28T17:14:59.478Z,6.03
2022-10-28T17:18:03.655Z,7.03
2022-10-28T17:21:06.952Z,7.80
2022-10-28T17:24:09.977Z,10.33
2022-10-28T17:27:13.017Z,8.47
2022-10-28T17:30:17.820Z,7.13
2022-10-28T17:33:22.198Z,6.93
2022-10-28T17:36:25.235Z,6.70
2022-10-28T17:39:28.131Z,7.80
2022-10-28T17:42:32.275Z,9.40
2022-10-28T17:45:36.564Z,8.13
2022-10-28T17:48:42.134Z,11.27
2022-10-28T17:51:45.283Z,8.40
2022-10-28T17:54:48.152Z,9.93
2022-10-28T17:57:50.983Z,9.70
2022-10-28T18:00:58.330Z,10.43
2022-10-28T18:04:08.395Z,10.80
2022-10-28T18:07:11.224Z,11.40
2022-10-28T18:10:14.227Z,10.67
2022-10-28T18:13:17.092Z,9.90
2022-10-28T18:16:21.697Z,10.30
2022-10-28T18:19:25.996Z,9.70
2022-10-28T18:22:29.029Z,9.80
2022-10-28T18:25:31.842Z,10.00
2022-10-28T18:28:36.218Z,9.47
2022-10-28T18:31:40.520Z,8.27
2022-10-28T18:34:44.786Z,9.07
2022-10-28T18:37:47.719Z,9.83
2022-10-28T18:40:50.697Z,9.20
2022-10-28T18:43:54.850Z,8.33
2022-10-28T18:46:57.737Z,8.63
2022-10-28T18:50:01.993Z,9.53
2022-10-28T18:53:05.847Z,9.10
2022-10-28T18:56:11.752Z,10.07
2022-10-28T18:59:14.570Z,9.50
2022-10-28T19:02:17.604Z,8.70
2022-10-28T19:05:22.198Z,7.77
2022-10-28T19:08:25.045Z,7.03
2022-10-28T19:11:30.145Z,8.10
2022-10-28T19:14:33.091Z,8.27
2022-10-28T19:17:36.040Z,7.63
2022-10-28T19:20:40.360Z,8.30
2022-10-28T19:23:44.224Z,8.90
2022-10-28T19:26:47.135Z,7.77
2022-10-28T19:29:50.014Z,8.60
2022-10-28T19:32:53.228Z,7.87
2022-10-28T19:36:01.813Z,8.07
2022-10-28T19:39:04.939Z,7.80
2022-10-28T19:42:07.728Z,7.90
2022-10-28T19:45:11.148Z,8.17
2022-10-28T19:48:14.009Z,7.63
2022-10-28T19:51:20.365Z,8.53
2022-10-28T19:54:23.236Z,8.97
2022-10-28T19:57:26.087Z,8.97
2022-10-28T20:00:28.985Z,9.00
2022-10-28T20:03:34.537Z,8.50
2022-10-28T20:06:41.611Z,8.40
2022-10-28T20:09:52.121Z,7.40
2022-10-28T20:12:56.400Z,7.20
2022-10-28T20:16:03.430Z,7.40
2022-10-28T20:19:06.766Z,7.17
2022-10-28T20:22:11.258Z,7.57
2022-10-28T20:25:14.272Z,7.37
2022-10-28T20:28:17.174Z,7.47
2022-10-28T20:31:22.378Z,7.17
2022-10-28T20:34:27.019Z,7.20
2022-10-28T20:37:31.271Z,7.00
2022-10-28T20:40:35.346Z,6.50
2022-10-28T20:43:38.159Z,6.97
2022-10-28T20:46:41.518Z,7.17
2022-10-28T20:49:44.299Z,7.10
2022-10-28T20:52:48.569Z,6.83
2022-10-28T20:55:52.940Z,7.30
2022-10-28T20:58:57.775Z,7.57
2022-10-28T21:02:00.790Z,6.57
2022-10-28T21:05:03.781Z,7.20
2022-10-28T21:08:08.880Z,6.67
2022-10-28T21:11:13.639Z,7.23
2022-10-28T21:14:23.044Z,7.73
2022-10-28T21:17:25.831Z,7.70
2022-10-28T21:20:29.341Z,8.17
2022-10-28T21:23:33.602Z,7.33
2022-10-28T21:26:36.430Z,7.87
2022-10-28T21:29:39.564Z,6.97
2022-10-28T21:32:42.432Z,6.67
2022-10-28T21:35:45.472Z,8.17
2022-10-28T21:38:49.766Z,7.37
2022-10-28T21:41:52.599Z,7.17
2022-10-28T21:44:55.454Z,7.47
2022-10-28T21:47:58.636Z,6.60
2022-10-28T21:51:06.303Z,7.30
2022-10-28T21:54:12.903Z,6.90
2022-10-28T21:57:15.719Z,7.30
2022-10-28T22:00:21.785Z,6.97
2022-10-28T22:03:24.633Z,7.10
2022-10-28T22:06:27.853Z,7.30
2022-10-28T22:09:39.750Z,7.07
2022-10-28T22:12:42.637Z,6.40
2022-10-28T22:15:45.532Z,6.87
2022-10-28T22:18:48.448Z,7.00
2022-10-28T22:21:53.580Z,7.53
2022-10-28T22:24:57.820Z,7.07
2022-10-28T22:28:00.702Z,8.00
2022-10-28T22:31:05.248Z,7.50
2022-10-28T22:34:08.181Z,6.83
2022-10-28T22:37:11.023Z,7.13
2022-10-28T22:40:15.359Z,6.93
2022-10-28T22:43:18.181Z,7.43
2022-10-28T22:46:22.263Z,7.70
2022-10-28T22:49:25.202Z,7.07
2022-10-28T22:52:28.031Z,7.80
2022-10-28T22:55:32.264Z,7.60
2022-10-28T22:58:35.404Z,6.93
2022-10-28T23:01:41.145Z,7.57
2022-10-28T23:04:44.136Z,6.90
2022-10-28T23:07:47.543Z,6.87
2022-10-28T23:10:51.791Z,7.00
2022-10-28T23:13:55.886Z,6.93
2022-10-28T23:16:58.721Z,6.97
2022-10-28T23:20:03.708Z,7.30
2022-10-28T23:23:06.601Z,7.60
2022-10-28T23:26:12.921Z,6.73
2022-10-28T23:29:15.788Z,7.23
2022-10-28T23:32:18.704Z,6.70
2022-10-28T23:35:21.656Z,6.97
2022-10-28T23:38:24.995Z,6.27
2022-10-28T23:41:29.245Z,6.30
2022-10-28T23:44:32.075Z,6.40
2022-10-28T23:47:34.880Z,6.83
2022-10-28T23:50:37.812Z,6.30
2022-10-28T23:53:40.682Z,6.53
2022-10-28T23:56:44.896Z,6.63
2022-10-28T23:59:55.053Z,9.37
